Time;durP1;ratioP1;P1;durP2;ratioP2;P2;SDS_P1;SDS_P2;PMS_P1;PMS_P2;Temp;Humidity;BMP_temperature;BMP_pressure;BME280_temperature;BME280_humidity;BME280_pressure;Samples;Min_cycle;Max_cycle;Signal;HPM_P1;HPM_P2
2021/12/22 00:00:17;;;;;;;74.27;30.60;;;;;;;-4.74;100.00;102435.16;5267154;28;20101;-68
2021/12/22 00:02:50;;;;;;;79.23;31.10;;;;;;;-4.75;100.00;102438.63;5260607;28;20332;-68
2021/12/22 00:05:28;;;;;;;71.77;31.23;;;;;;;-4.84;100.00;102438.50;5257554;28;20020;-68
2021/12/22 00:08:00;;;;;;;70.57;32.13;;;;;;;-4.79;100.00;102442.03;5259293;28;20052;-68
2021/12/22 00:10:31;;;;;;;70.37;28.83;;;;;;;-4.85;100.00;102442.84;5261550;28;20040;-68
2021/12/22 00:13:02;;;;;;;72.10;30.97;;;;;;;-4.82;100.00;102445.47;5259519;28;20078;-68
2021/12/22 00:15:33;;;;;;;67.87;30.30;;;;;;;-4.89;100.00;102434.94;5263108;28;20191;-68
2021/12/22 00:18:05;;;;;;;65.40;28.80;;;;;;;-4.92;100.00;102449.66;5270291;28;20582;-68
2021/12/22 00:20:37;;;;;;;64.77;30.10;;;;;;;-4.92;100.00;102443.59;5261106;28;20036;-68
2021/12/22 00:23:08;;;;;;;74.00;31.60;;;;;;;-4.87;100.00;102438.44;5261700;28;20139;-68
2021/12/22 00:25:40;;;;;;;75.60;32.20;;;;;;;-5.00;100.00;102443.50;5259600;28;20111;-68
2021/12/22 00:28:11;;;;;;;77.13;31.63;;;;;;;-4.99;100.00;102439.16;5261346;28;20031;-68
2021/12/22 00:30:43;;;;;;;73.50;32.00;;;;;;;-4.97;100.00;102443.53;5259867;28;20149;-68
2021/12/22 00:33:14;;;;;;;70.83;30.50;;;;;;;-4.96;100.00;102440.09;5261863;28;20020;-68
2021/12/22 00:35:46;;;;;;;73.57;30.57;;;;;;;-4.96;100.00;102440.09;5262692;28;20405;-68
2021/12/22 00:38:19;;;;;;;68.20;30.70;;;;;;;-4.96;100.00;102445.28;5268552;28;20037;-69
2021/12/22 00:40:51;;;;;;;70.30;30.98;;;;;;;-4.96;100.00;102442.69;5263001;28;20468;-68
2021/12/22 00:43:22;;;;;;;82.70;33.77;;;;;;;-4.93;100.00;102449.66;5262420;28;20029;-68
2021/12/22 00:45:56;;;;;;;73.73;32.77;;;;;;;-4.95;100.00;102449.66;5263578;28;20044;-68
2021/12/22 00:48:27;;;;;;;74.93;31.85;;;;;;;-4.95;100.00;102443.53;5268045;28;20482;-68
2021/12/22 00:50:59;;;;;;;76.13;32.73;;;;;;;-4.93;100.00;102434.03;5270313;28;20130;-68
2021/12/22 00:53:30;;;;;;;67.10;30.17;;;;;;;-4.94;100.00;102446.19;5268987;28;20035;-69
2021/12/22 00:56:03;;;;;;;71.13;31.50;;;;;;;-4.97;100.00;102437.44;5262582;28;20036;-68
2021/12/22 00:58:34;;;;;;;75.27;30.40;;;;;;;-5.00;100.00;102437.44;5265800;28;20104;-68
2021/12/22 01:01:06;;;;;;;76.67;31.63;;;;;;;-5.01;100.00;102438.25;5274883;28;20493;-69
2021/12/22 01:03:37;;;;;;;73.20;31.47;;;;;;;-5.02;100.00;102437.41;5275673;28;20376;-68
2021/12/22 01:06:08;;;;;;;70.60;30.77;;;;;;;-5.08;100.00;102429.50;5275321;28;20021;-69
2021/12/22 01:08:40;;;;;;;58.80;29.33;;;;;;;-5.07;100.00;102441.66;5271906;28;21756;-68
2021/12/22 01:11:11;;;;;;;71.80;30.17;;;;;;;-5.12;100.00;102438.09;5267289;28;20085;-68
2021/12/22 01:13:42;;;;;;;72.90;30.70;;;;;;;-5.04;100.00;102446.03;5272094;28;20038;-68
2021/12/22 01:16:14;;;;;;;63.43;28.13;;;;;;;-5.09;100.00;102442.50;5268356;28;20032;-68
2021/12/22 01:18:45;;;;;;;63.80;29.93;;;;;;;-5.14;100.00;102438.09;5263357;28;20028;-68
2021/12/22 01:21:26;;;;;;;67.63;29.43;;;;;;;-5.15;100.00;102438.94;5263092;28;20123;-68
2021/12/22 01:24:10;;;;;;;69.27;29.40;;;;;;;-5.15;100.00;102430.28;5263215;28;20125;-68
2021/12/22 01:26:46;;;;;;;66.87;29.37;;;;;;;-5.20;100.00;102427.59;5262919;28;20029;-69
2021/12/22 01:29:18;;;;;;;74.40;31.83;;;;;;;-5.15;100.00;102433.75;5264292;28;20040;-68
2021/12/22 01:31:50;;;;;;;69.87;30.73;;;;;;;-5.17;100.00;102424.19;5263103;28;20683;-68
2021/12/22 01:34:21;;;;;;;63.13;28.93;;;;;;;-5.18;100.00;102425.91;5262622;28;20113;-68
2021/12/22 01:36:52;;;;;;;71.33;31.27;;;;;;;-5.19;100.00;102431.09;5260770;28;20064;-68
2021/12/22 01:39:24;;;;;;;66.53;28.40;;;;;;;-5.21;100.00;102431.06;5261081;28;20032;-68
2021/12/22 01:41:56;;;;;;;62.10;28.60;;;;;;;-5.20;100.00;102429.31;5261322;28;20037;-68
2021/12/22 01:44:45;;;;;;;65.00;29.40;;;;;;;-5.21;100.00;102436.25;5263611;28;20040;-68
2021/12/22 01:50:09;;;;;;;72.97;28.47;;;;;;;-5.22;100.00;102418.88;5265698;28;20044;-68
2021/12/22 01:52:41;;;;;;;69.85;29.15;;;;;;;-5.20;100.00;102425.00;5274528;28;20060;-68
2021/12/22 01:55:26;;;;;;;65.13;29.70;;;;;;;-5.20;100.00;102418.91;5270526;28;20112;-68
2021/12/22 01:57:59;;;;;;;65.03;28.70;;;;;;;-5.16;100.00;102410.28;5271138;28;20090;-68
2021/12/22 02:00:31;;;;;;;71.33;28.83;;;;;;;-5.18;100.00;102422.41;5272417;28;21918;-68
2021/12/22 02:03:03;;;;;;;67.33;29.00;;;;;;;-5.19;100.00;102420.69;5267604;28;20051;-68
2021/12/22 02:05:35;;;;;;;68.23;28.77;;;;;;;-5.18;100.00;102427.63;5270862;28;20344;-68
2021/12/22 02:08:07;;;;;;;63.53;28.00;;;;;;;-5.12;100.00;102423.38;5271071;28;20051;-68
2021/12/22 02:10:46;;;;;;;70.40;29.60;;;;;;;-5.10;100.00;102430.31;5272029;28;20621;-69
2021/12/22 02:13:24;;;;;;;61.33;27.40;;;;;;;-5.16;100.00;102438.91;5274049;28;20039;-69
2021/12/22 02:15:55;;;;;;;62.10;28.43;;;;;;;-5.17;100.00;102440.66;5265558;28;20041;-68
2021/12/22 02:18:31;;;;;;;63.20;26.67;;;;;;;-5.20;100.00;102443.19;5273020;28;20553;-69
2021/12/22 02:21:03;;;;;;;64.67;26.67;;;;;;;-5.25;100.00;102438.81;5269358;28;20436;-68
2021/12/22 02:23:35;;;;;;;61.83;27.10;;;;;;;-5.25;100.00;102442.28;5259843;28;20478;-69
2021/12/22 02:26:21;;;;;;;61.77;28.53;;;;;;;-5.25;100.00;102437.06;5269208;28;20036;-69
2021/12/22 02:29:03;;;;;;;64.80;29.03;;;;;;;-5.28;100.00;102443.97;5270715;28;20040;-68
2021/12/22 02:31:41;;;;;;;62.73;27.47;;;;;;;-5.23;100.00;102431.91;5269866;28;20036;-68
2021/12/22 02:34:15;;;;;;;62.10;27.40;;;;;;;-5.26;100.00;102444.84;5267745;28;20043;-68
2021/12/22 02:36:46;;;;;;;63.13;26.37;;;;;;;-5.29;100.00;102442.19;5270232;28;20413;-68
2021/12/22 02:39:17;;;;;;;62.80;26.47;;;;;;;-5.29;100.00;102434.38;5274266;28;20039;-68
2021/12/22 02:41:49;;;;;;;59.67;25.73;;;;;;;-5.29;100.00;102437.88;5268934;28;20593;-68
2021/12/22 02:44:22;;;;;;;67.70;28.90;;;;;;;-5.32;100.00;102441.31;5271845;28;20228;-68
2021/12/22 02:46:53;;;;;;;63.07;25.37;;;;;;;-5.33;100.00;102439.56;5267070;28;20028;-69
2021/12/22 02:49:25;;;;;;;58.73;26.67;;;;;;;-5.33;100.00;102436.97;5270884;28;20031;-68
2021/12/22 02:51:56;;;;;;;61.93;27.50;;;;;;;-5.36;100.00;102433.44;5267652;28;20765;-68
2021/12/22 02:54:28;;;;;;;63.37;27.93;;;;;;;-5.32;100.00;102425.69;5273750;28;20167;-68
2021/12/22 02:57:18;;;;;;;60.77;27.00;;;;;;;-5.34;100.00;102423.94;5273524;28;20028;-69
2021/12/22 03:00:23;;;;;;;58.67;27.03;;;;;;;-5.28;100.00;102425.75;5267757;28;20032;-68
2021/12/22 03:05:28;;;;;;;60.10;25.87;;;;;;;-5.29;100.00;102422.28;5271599;28;20033;-68
2021/12/22 03:08:00;;;;;;;58.23;25.50;;;;;;;-5.42;100.00;102426.41;5273037;28;20056;-68
2021/12/22 03:10:32;;;;;;;53.90;25.57;;;;;;;-5.44;100.00;102425.53;5270011;28;20039;-68
2021/12/22 03:13:04;;;;;;;55.03;24.57;;;;;;;-5.42;100.00;102431.63;5273199;28;20086;-68
2021/12/22 03:15:35;;;;;;;51.30;24.33;;;;;;;-5.45;100.00;102431.56;5259080;28;20028;-68
2021/12/22 03:18:07;;;;;;;60.17;24.67;;;;;;;-5.41;100.00;102441.16;5268256;28;20039;-68
2021/12/22 03:20:38;;;;;;;53.97;25.37;;;;;;;-5.43;100.00;102448.06;5267421;28;20026;-68
2021/12/22 03:23:10;;;;;;;51.30;23.63;;;;;;;-5.46;100.00;102444.56;5268741;28;20067;-68
2021/12/22 03:25:42;;;;;;;59.83;24.40;;;;;;;-5.48;100.00;102461.84;5263618;28;20075;-68
2021/12/22 03:28:13;;;;;;;54.97;23.83;;;;;;;-5.48;100.00;102449.75;5265405;28;20375;-68
2021/12/22 03:30:44;;;;;;;51.23;24.77;;;;;;;-5.48;100.00;102454.94;5264597;28;20466;-68
2021/12/22 03:33:15;;;;;;;51.70;22.80;;;;;;;-5.45;100.00;102443.69;5270727;28;20536;-68
2021/12/22 03:35:47;;;;;;;53.53;23.73;;;;;;;-5.50;100.00;102448.84;5261980;28;20037;-68
2021/12/22 03:38:18;;;;;;;53.60;25.10;;;;;;;-5.56;100.00;102459.13;5266374;28;20032;-69
2021/12/22 03:40:50;;;;;;;58.77;24.50;;;;;;;-5.56;100.00;102460.00;5266878;28;20415;-68
2021/12/22 03:43:21;;;;;;;53.77;23.83;;;;;;;-5.51;100.00;102452.28;5269361;28;20025;-68
2021/12/22 03:45:52;;;;;;;49.97;23.27;;;;;;;-5.55;100.00;102443.53;5261659;28;20688;-69
2021/12/22 03:48:25;;;;;;;53.57;24.67;;;;;;;-5.49;100.00;102450.56;5269064;28;20158;-68
2021/12/22 03:50:56;;;;;;;55.90;24.20;;;;;;;-5.52;100.00;102447.94;5261543;28;20047;-68
2021/12/22 03:53:28;;;;;;;57.87;24.73;;;;;;;-5.50;100.00;102438.44;5270589;28;20044;-68
2021/12/22 03:55:59;;;;;;;51.60;24.20;;;;;;;-5.53;100.00;102430.56;5261561;28;20042;-69
2021/12/22 03:58:30;;;;;;;55.87;23.83;;;;;;;-5.57;100.00;102439.19;5266245;28;20145;-68
2021/12/22 04:01:03;;;;;;;51.20;22.90;;;;;;;-5.57;100.00;102446.97;5257591;28;20040;-69
2021/12/22 04:03:36;;;;;;;53.73;23.80;;;;;;;-5.60;100.00;102441.72;5264730;28;20525;-68
2021/12/22 04:06:08;;;;;;;50.87;23.23;;;;;;;-5.55;100.00;102443.53;5258922;28;20956;-69
2021/12/22 04:08:39;;;;;;;53.00;24.60;;;;;;;-5.57;100.00;102439.19;5260173;28;20147;-68
2021/12/22 04:11:10;;;;;;;53.17;23.53;;;;;;;-5.58;100.00;102435.72;5261388;28;20558;-68
2021/12/22 04:13:42;;;;;;;53.60;23.53;;;;;;;-5.59;100.00;102435.69;5267933;28;20555;-68
2021/12/22 04:16:13;;;;;;;55.20;24.00;;;;;;;-5.53;100.00;102434.03;5260898;28;20755;-68
2021/12/22 04:18:44;;;;;;;52.67;23.90;;;;;;;-5.62;100.00;102433.91;5258756;28;20376;-68
2021/12/22 04:21:16;;;;;;;52.53;22.97;;;;;;;-5.61;100.00;102435.66;5261391;28;20020;-69
2021/12/22 04:23:47;;;;;;;50.27;23.77;;;;;;;-5.61;100.00;102433.06;5258839;28;20035;-68
2021/12/22 04:26:19;;;;;;;51.67;22.43;;;;;;;-5.61;100.00;102430.44;5262572;28;20047;-68
2021/12/22 04:28:50;;;;;;;50.73;23.07;;;;;;;-5.61;100.00;102417.44;5268481;28;20035;-68
2021/12/22 04:31:21;;;;;;;49.60;22.97;;;;;;;-5.62;100.00;102413.13;5263248;28;20083;-68
2021/12/22 04:33:53;;;;;;;48.83;22.37;;;;;;;-5.60;100.00;102413.13;5257315;28;20036;-68
2021/12/22 04:36:24;;;;;;;48.27;22.33;;;;;;;-5.60;100.00;102407.91;5257523;28;20454;-68
2021/12/22 04:38:57;;;;;;;55.07;22.67;;;;;;;-5.63;100.00;102407.91;5253220;28;20053;-68
2021/12/22 04:41:28;;;;;;;46.90;21.53;;;;;;;-5.66;100.00;102406.09;5260752;28;20250;-69
2021/12/22 04:44:00;;;;;;;48.80;22.70;;;;;;;-5.64;100.00;102412.19;5260394;28;20051;-68
2021/12/22 04:46:31;;;;;;;51.07;22.93;;;;;;;-5.66;100.00;102408.69;5265547;28;20025;-68
2021/12/22 04:49:04;;;;;;;47.43;22.23;;;;;;;-5.66;100.00;102400.91;5266166;28;20090;-69
2021/12/22 04:51:36;;;;;;;50.53;23.30;;;;;;;-5.69;100.00;102403.47;5268445;28;20481;-68
2021/12/22 04:54:29;;;;;;;53.73;23.23;;;;;;;-5.61;100.00;102406.19;5267651;28;20403;-68
2021/12/22 04:57:01;;;;;;;48.60;21.80;;;;;;;-5.63;100.00;102413.09;5268013;28;20108;-68
2021/12/22 04:59:32;;;;;;;51.13;21.50;;;;;;;-5.62;100.00;102410.53;5270494;28;20029;-68
2021/12/22 05:02:03;;;;;;;47.17;21.10;;;;;;;-5.61;100.00;102408.78;5267844;28;20032;-68
2021/12/22 05:04:35;;;;;;;52.60;22.33;;;;;;;-5.59;100.00;102402.75;5260961;28;20522;-68
2021/12/22 05:07:06;;;;;;;44.00;21.40;;;;;;;-5.57;100.00;102397.59;5265257;28;20472;-69
2021/12/22 05:09:37;;;;;;;47.33;21.13;;;;;;;-5.56;100.00;102399.31;5272745;28;20472;-69
2021/12/22 05:12:09;;;;;;;46.67;20.67;;;;;;;-5.56;100.00;102401.91;5270420;28;20062;-68
2021/12/22 05:14:42;;;;;;;52.17;22.37;;;;;;;-5.56;100.00;102396.72;5267207;28;20093;-68
2021/12/22 05:17:21;;;;;;;41.57;20.17;;;;;;;-5.54;100.00;102397.63;5269581;28;20059;-68
2021/12/22 05:19:52;;;;;;;45.93;21.13;;;;;;;-5.53;100.00;102394.16;5266815;28;20047;-68
2021/12/22 05:22:23;;;;;;;39.77;20.03;;;;;;;-5.51;100.00;102395.94;5261490;28;20394;-69
2021/12/22 05:24:54;;;;;;;46.30;22.27;;;;;;;-5.53;100.00;102395.03;5256536;28;20460;-68
2021/12/22 05:27:26;;;;;;;49.53;21.23;;;;;;;-5.54;100.00;102397.63;5249378;28;20025;-69
2021/12/22 05:29:58;;;;;;;40.60;19.40;;;;;;;-5.49;100.00;102392.50;5260160;28;20563;-68
2021/12/22 05:32:32;;;;;;;42.40;21.03;;;;;;;-5.54;100.00;102402.84;5268818;28;20578;-69
2021/12/22 05:35:06;;;;;;;;;;;;;;;-5.49;100.00;102410.69;5267385;28;20036;-69
2021/12/22 05:37:39;;;;;;;43.60;20.77;;;;;;;-5.54;100.00;102401.09;5264223;28;19961;-69
2021/12/22 05:40:10;;;;;;;39.57;18.90;;;;;;;-5.56;100.00;102394.09;5263767;28;20042;-69
2021/12/22 05:42:42;;;;;;;40.93;19.83;;;;;;;-5.51;100.00;102389.88;5265633;28;20025;-68
2021/12/22 05:45:13;;;;;;;37.57;19.37;;;;;;;-5.56;100.00;102384.59;5265323;28;20039;-69
2021/12/22 05:47:44;;;;;;;40.40;19.43;;;;;;;-5.53;100.00;102378.56;5260348;28;20028;-68
2021/12/22 05:50:16;;;;;;;45.03;20.27;;;;;;;-5.49;100.00;102377.75;5268264;28;20055;-68
2021/12/22 05:52:48;;;;;;;38.03;19.83;;;;;;;-5.50;100.00;102378.63;5275841;28;20451;-68
2021/12/22 05:55:19;;;;;;;41.67;20.80;;;;;;;-5.48;100.00;102381.22;5268648;28;20458;-68
2021/12/22 05:57:51;;;;;;;36.40;19.87;;;;;;;-5.47;100.00;102380.38;5264070;28;22201;-69
2021/12/22 06:00:22;;;;;;;43.53;19.53;;;;;;;-5.57;100.00;102366.38;5264095;28;20024;-68
2021/12/22 06:02:53;;;;;;;45.97;19.93;;;;;;;-5.55;100.00;102369.88;5267727;28;20398;-68
2021/12/22 06:05:25;;;;;;;41.07;19.90;;;;;;;-5.55;100.00;102369.88;5268450;28;20024;-68
2021/12/22 06:07:56;;;;;;;35.57;18.47;;;;;;;-5.48;100.00;102370.81;5274582;28;20106;-68
2021/12/22 06:10:27;;;;;;;41.93;20.50;;;;;;;-5.52;100.00;102375.13;5275628;28;20063;-69
2021/12/22 06:12:58;;;;;;;41.93;20.37;;;;;;;-5.50;100.00;102386.44;5272854;28;20498;-68
2021/12/22 06:15:30;;;;;;;42.53;19.60;;;;;;;-5.47;100.00;102385.59;5270546;28;20082;-69
2021/12/22 06:18:03;;;;;;;36.30;19.37;;;;;;;-5.55;100.00;102386.34;5262256;28;20028;-69
2021/12/22 06:20:35;;;;;;;42.73;19.93;;;;;;;-5.49;100.00;102385.56;5275481;28;20024;-69
2021/12/22 06:23:06;;;;;;;41.33;20.10;;;;;;;-5.56;100.00;102384.59;5269490;28;20043;-68
2021/12/22 06:25:38;;;;;;;39.27;19.63;;;;;;;-5.54;100.00;102387.25;5274988;28;20777;-69
2021/12/22 06:28:09;;;;;;;39.40;19.43;;;;;;;-5.60;100.00;102389.72;5269185;28;20040;-68
2021/12/22 06:30:40;;;;;;;38.97;19.77;;;;;;;-5.57;100.00;102382.84;5263024;28;20029;-68
2021/12/22 06:33:12;;;;;;;40.20;19.07;;;;;;;-5.61;100.00;102381.06;5267392;28;20127;-69
2021/12/22 06:35:46;;;;;;;38.23;19.40;;;;;;;-5.65;100.00;102381.00;5272160;28;20094;-68
2021/12/22 06:38:18;;;;;;;38.33;19.20;;;;;;;-5.68;100.00;102376.59;5264870;28;20036;-68
2021/12/22 06:40:49;;;;;;;40.97;18.77;;;;;;;-5.64;100.00;102378.41;5262534;28;20486;-68
2021/12/22 06:43:20;;;;;;;34.10;19.10;;;;;;;-5.66;100.00;102384.44;5264473;28;20050;-68
2021/12/22 06:45:52;;;;;;;36.20;18.17;;;;;;;-5.70;100.00;102388.69;5267981;28;20132;-69
2021/12/22 06:48:23;;;;;;;29.97;16.80;;;;;;;-5.66;100.00;102389.63;5272147;28;20051;-68
2021/12/22 06:50:54;;;;;;;34.20;17.83;;;;;;;-5.72;100.00;102387.81;5269847;28;20542;-68
2021/12/22 06:53:26;;;;;;;39.90;19.47;;;;;;;-5.69;100.00;102394.78;5268453;28;20025;-68
2021/12/22 06:55:57;;;;;;;34.00;17.67;;;;;;;-5.69;100.00;102387.88;5272330;28;20040;-68
2021/12/22 06:58:28;;;;;;;38.40;18.27;;;;;;;-5.74;100.00;102390.38;5266422;28;20028;-68
2021/12/22 07:01:00;;;;;;;34.00;17.80;;;;;;;-5.75;100.00;102390.38;5257525;28;20037;-68
2021/12/22 07:03:31;;;;;;;33.73;17.73;;;;;;;-5.78;100.00;102395.50;5261952;28;20059;-69
2021/12/22 07:06:03;;;;;;;31.37;17.73;;;;;;;-5.78;100.00;102400.72;5267045;28;20029;-68
2021/12/22 07:08:34;;;;;;;36.20;17.73;;;;;;;-5.80;100.00;102405.03;5256391;28;20087;-68
2021/12/22 07:11:05;;;;;;;41.23;18.93;;;;;;;-5.78;100.00;102403.31;5263909;28;20113;-68
2021/12/22 07:13:37;;;;;;;40.80;19.10;;;;;;;-5.81;100.00;102392.84;5267395;28;20032;-68
2021/12/22 07:16:08;;;;;;;36.63;18.00;;;;;;;-5.79;100.00;102386.84;5270371;28;20028;-68
2021/12/22 07:18:39;;;;;;;37.37;18.57;;;;;;;-5.82;100.00;102386.78;5271140;28;20039;-68
2021/12/22 07:21:11;;;;;;;35.27;17.63;;;;;;;-5.82;100.00;102380.72;5271185;28;20042;-69
2021/12/22 07:23:42;;;;;;;35.07;17.97;;;;;;;-5.81;100.00;102380.75;5273254;28;20051;-68
2021/12/22 07:26:14;;;;;;;36.30;17.80;;;;;;;-5.82;100.00;102376.41;5269894;28;20025;-69
2021/12/22 07:28:47;;;;;;;35.70;17.00;;;;;;;-5.85;100.00;102381.53;5269918;28;20020;-68
2021/12/22 07:31:18;;;;;;;37.80;18.23;;;;;;;-5.83;100.00;102389.38;5266871;28;20549;-68
2021/12/22 07:33:58;;;;;;;33.37;16.73;;;;;;;-5.80;100.00;102385.09;5270681;28;20040;-68
2021/12/22 07:36:30;;;;;;;33.67;17.03;;;;;;;-5.86;100.00;102392.78;5266108;28;20460;-68
2021/12/22 07:39:03;;;;;;;36.77;17.17;;;;;;;-5.83;100.00;102387.66;5273719;28;20032;-68
2021/12/22 07:41:34;;;;;;;30.43;16.23;;;;;;;-5.86;100.00;102398.00;5268517;28;20035;-68
2021/12/22 07:44:06;;;;;;;34.13;17.10;;;;;;;-5.82;100.00;102380.72;5269075;28;20032;-68
2021/12/22 07:46:37;;;;;;;30.90;15.90;;;;;;;-5.81;100.00;102383.34;5268089;28;20024;-69
2021/12/22 07:49:08;;;;;;;34.40;16.87;;;;;;;-5.78;100.00;102380.78;5273317;28;20494;-69
2021/12/22 07:51:40;;;;;;;33.87;16.50;;;;;;;-5.72;100.00;102382.59;5265793;28;20253;-69
2021/12/22 07:54:11;;;;;;;35.00;17.03;;;;;;;-5.71;100.00;102380.03;5270682;28;20047;-69
2021/12/22 07:56:42;;;;;;;29.97;15.90;;;;;;;-5.66;100.00;102380.09;5269567;28;20067;-69
2021/12/22 07:59:13;;;;;;;31.47;17.00;;;;;;;-5.63;100.00;102381.88;5271386;28;20031;-69
2021/12/22 08:01:45;;;;;;;31.17;16.07;;;;;;;-5.64;100.00;102382.72;5268112;28;20164;-69
2021/12/22 08:04:16;;;;;;;33.30;16.80;;;;;;;-5.59;100.00;102381.09;5268274;28;20036;-68
2021/12/22 08:06:47;;;;;;;34.50;17.67;;;;;;;-5.58;100.00;102380.22;5271894;28;20036;-69
2021/12/22 08:09:25;;;;;;;35.10;16.70;;;;;;;-5.52;100.00;102382.94;5270283;28;20078;-69
2021/12/22 08:12:04;;;;;;;32.77;16.27;;;;;;;-5.59;100.00;102386.28;5268368;28;20493;-68
2021/12/22 08:14:38;;;;;;;32.07;15.67;;;;;;;-5.54;100.00;102380.31;5272319;28;20028;-69
2021/12/22 08:17:10;;;;;;;33.70;17.42;;;;;;;-5.52;100.00;102378.59;5267321;28;20024;-68
2021/12/22 08:19:43;;;;;;;33.47;15.50;;;;;;;-5.40;100.00;102377.03;5271962;28;20086;-68
2021/12/22 08:22:14;;;;;;;29.63;15.33;;;;;;;-5.40;100.00;102375.28;5270416;28;20031;-68
2021/12/22 08:24:46;;;;;;;28.40;15.90;;;;;;;-5.31;100.00;102377.16;5270210;28;20028;-69
2021/12/22 08:27:18;;;;;;;29.47;16.00;;;;;;;-5.29;100.00;102370.25;5270819;28;20051;-68
2021/12/22 08:29:50;;;;;;;27.90;15.73;;;;;;;-5.20;100.00;102379.88;5270964;28;20044;-69
2021/12/22 08:32:22;;;;;;;29.80;16.17;;;;;;;-5.19;100.00;102384.25;5264243;28;20462;-69
2021/12/22 08:34:55;;;;;;;30.67;15.83;;;;;;;-5.16;100.00;102381.69;5270160;28;20111;-69
2021/12/22 08:40:17;;;;;;;36.77;17.63;;;;;;;-5.06;100.00;102380.97;5266993;28;20045;-68
2021/12/22 08:42:49;;;;;;;35.77;17.33;;;;;;;-5.02;100.00;102380.16;5271302;28;20028;-68
2021/12/22 08:45:21;;;;;;;32.47;16.43;;;;;;;-5.01;100.00;102376.66;5270619;28;20025;-68
2021/12/22 08:47:52;;;;;;;32.43;17.00;;;;;;;-4.95;100.00;102378.47;5262817;28;20075;-69
2021/12/22 08:50:24;;;;;;;29.37;16.43;;;;;;;-4.92;100.00;102370.72;5266967;28;20062;-68
2021/12/22 08:52:56;;;;;;;33.23;17.60;;;;;;;-4.90;100.00;102374.22;5269335;28;20031;-69
2021/12/22 08:55:27;;;;;;;36.77;17.33;;;;;;;-4.87;100.00;102378.56;5269505;28;20032;-69
2021/12/22 08:57:58;;;;;;;33.00;17.87;;;;;;;-4.82;100.00;102374.31;5265402;28;20024;-69
2021/12/22 09:00:31;;;;;;;31.93;17.23;;;;;;;-4.81;100.00;102379.53;5266312;28;20435;-69
2021/12/22 09:03:03;;;;;;;30.50;16.03;;;;;;;-4.75;100.00;102365.72;5266355;28;20765;-69
2021/12/22 09:05:34;;;;;;;33.10;17.97;;;;;;;-4.73;100.00;102371.81;5266579;28;20043;-69
2021/12/22 09:08:05;;;;;;;34.13;18.60;;;;;;;-4.68;100.00;102372.72;5274035;28;20075;-69
2021/12/22 09:10:36;;;;;;;29.37;17.03;;;;;;;-4.63;100.00;102368.44;5268060;28;20064;-69
2021/12/22 09:13:08;;;;;;;32.47;17.50;;;;;;;-4.58;100.00;102373.72;5272275;28;20063;-69
2021/12/22 09:15:39;;;;;;;33.23;18.37;;;;;;;-4.53;100.00;102374.63;5270617;28;20061;-68
2021/12/22 09:18:10;;;;;;;33.23;19.33;;;;;;;-4.50;100.00;102366.84;5274256;28;20478;-69
2021/12/22 09:20:42;;;;;;;32.97;18.47;;;;;;;-4.45;100.00;102365.19;5270009;28;20028;-69
2021/12/22 09:23:14;;;;;;;32.27;17.70;;;;;;;-4.39;100.00;102366.94;5267879;28;20114;-69
2021/12/22 09:25:45;;;;;;;31.03;18.57;;;;;;;-4.35;100.00;102366.16;5270314;28;20039;-69
2021/12/22 09:28:16;;;;;;;36.33;19.17;;;;;;;-4.28;100.00;102367.06;5272636;28;20028;-69
2021/12/22 09:30:48;;;;;;;33.17;18.20;;;;;;;-4.27;100.00;102364.47;5272590;28;20492;-69
2021/12/22 09:33:20;;;;;;;35.60;18.37;;;;;;;-4.23;100.00;102371.47;5273572;28;20592;-69
2021/12/22 09:35:53;;;;;;;41.83;20.83;;;;;;;-4.17;100.00;102363.69;5271334;28;20291;-69
2021/12/22 09:38:25;;;;;;;37.27;19.57;;;;;;;-4.09;100.00;102362.88;5275359;28;20474;-69
2021/12/22 09:40:56;;;;;;;36.57;19.00;;;;;;;-4.03;100.00;102362.94;5264239;28;20731;-69
2021/12/22 09:43:28;;;;;;;36.17;18.40;;;;;;;-3.98;100.00;102362.13;5264540;28;20077;-69
2021/12/22 09:46:05;;;;;;;33.50;18.00;;;;;;;-3.94;100.00;102353.47;5273563;28;20025;-69
2021/12/22 09:53:46;;;;;;;31.80;17.77;;;;;;;-3.81;100.00;102357.03;5268460;28;20090;-70
2021/12/22 09:56:24;;;;;;;33.75;17.95;;;;;;;-3.75;100.00;102353.59;5276779;28;20025;-69
2021/12/22 09:58:55;;;;;;;33.47;18.57;;;;;;;-3.69;100.00;102358.00;5272812;28;20025;-69
2021/12/22 10:01:27;;;;;;;31.77;17.63;;;;;;;-3.61;100.00;102372.81;5268211;28;20082;-69
2021/12/22 10:03:59;;;;;;;33.63;18.47;;;;;;;-3.53;100.00;102366.78;5276181;28;20458;-69
2021/12/22 10:06:30;;;;;;;31.60;17.47;;;;;;;-3.45;100.00;102357.25;5272497;28;20021;-69
2021/12/22 10:09:05;;;;;;;35.93;18.57;;;;;;;-3.39;100.00;102358.19;5272889;28;20517;-69
2021/12/22 10:11:43;;;;;;;31.97;17.67;;;;;;;-3.31;100.00;102345.19;5273207;28;20031;-69
2021/12/22 10:14:24;;;;;;;31.03;18.20;;;;;;;-3.24;100.00;102343.47;5273966;28;20062;-69
2021/12/22 10:16:56;;;;;;;29.40;17.83;;;;;;;-3.18;100.00;102349.59;5271443;28;20478;-69
2021/12/22 10:19:27;;;;;;;31.70;18.50;;;;;;;-3.15;100.00;102339.16;5274886;28;20027;-69
2021/12/22 10:22:02;;;;;;;32.37;17.73;;;;;;;-3.06;100.00;102337.47;5271899;28;20111;-69
2021/12/22 10:24:38;;;;;;;;;;;;;;;-3.06;100.00;102340.94;5273891;28;20417;-69
2021/12/22 10:27:18;;;;;;;29.93;16.87;;;;;;;-3.02;100.00;102332.25;5276624;28;20416;-70
2021/12/22 10:29:49;;;;;;;28.70;17.57;;;;;;;-2.99;100.00;102337.50;5270013;28;20382;-70
2021/12/22 10:32:21;;;;;;;29.67;17.03;;;;;;;-2.98;100.00;102341.84;5269162;28;20036;-69
2021/12/22 10:34:59;;;;;;;34.43;17.87;;;;;;;-2.96;100.00;102336.63;5271964;28;20037;-69
2021/12/22 10:37:31;;;;;;;32.43;18.63;;;;;;;-2.93;100.00;102335.75;5273886;28;20794;-69
2021/12/22 10:40:21;;;;;;;29.70;18.05;;;;;;;-2.90;100.00;102331.41;5273374;28;20478;-69
2021/12/22 10:42:53;;;;;;;31.23;18.13;;;;;;;-2.87;100.00;102327.97;5271782;28;20469;-69
2021/12/22 10:45:27;;;;;;;29.63;17.38;;;;;;;-2.86;100.00;102322.72;5277365;28;20013;-69
2021/12/22 10:50:53;;;;;;;30.48;18.48;;;;;;;-2.77;100.00;102314.91;5268284;28;20068;-69
2021/12/22 10:53:26;;;;;;;27.65;17.67;;;;;;;-2.73;100.00;102307.97;5275849;28;20074;-69
2021/12/22 10:55:57;;;;;;;31.50;17.30;;;;;;;-2.73;100.00;102313.19;5271738;28;20052;-69
2021/12/22 10:58:35;;;;;;;29.20;16.50;;;;;;;-2.66;100.00;102299.28;5271373;28;20054;-69
2021/12/22 11:01:08;;;;;;;28.23;17.27;;;;;;;-2.61;100.00;102297.56;5273552;28;20028;-69
2021/12/22 11:03:54;;;;;;;30.23;17.02;;;;;;;-2.54;100.00;102297.56;5274214;28;20551;-70
2021/12/22 11:06:29;;;;;;;31.33;18.20;;;;;;;-2.46;100.00;102288.84;5270334;28;20031;-70
2021/12/22 11:09:00;;;;;;;;;;;;;;;-2.44;100.00;102286.22;5276601;28;20134;-69
2021/12/22 11:11:37;;;;;;;35.63;20.90;;;;;;;-2.34;100.00;102285.34;5273136;28;20300;-70
2021/12/22 11:14:19;;;;;;;34.08;19.90;;;;;;;-2.30;100.00;102284.50;5276322;28;20025;-69
2021/12/22 11:17:10;;;;;;;35.03;20.50;;;;;;;-2.23;100.00;102294.06;5267687;28;20040;-69
2021/12/22 11:19:44;;;;;;;28.60;19.38;;;;;;;-2.18;100.00;102288.88;5274192;28;20390;-69
2021/12/22 11:22:18;;;;;;;34.60;19.90;;;;;;;-2.19;100.00;102293.22;5269482;28;20059;-69
2021/12/22 11:24:54;;;;;;;31.60;16.55;;;;;;;-2.15;100.00;102291.47;5273389;28;20766;-69
2021/12/22 11:27:27;;;;;;;31.10;19.13;;;;;;;-2.09;100.00;102287.97;5267568;28;20653;-69
2021/12/22 11:29:58;;;;;;;32.80;19.53;;;;;;;-2.05;100.00;102293.22;5263661;28;20036;-69
2021/12/22 11:32:31;;;;;;;31.45;18.95;;;;;;;-2.01;100.00;102283.63;5264371;28;20495;-69
2021/12/22 11:35:06;;;;;;;30.90;18.08;;;;;;;-1.94;100.00;102277.50;5269934;28;20056;-70
2021/12/22 11:37:38;;;;;;;30.05;18.65;;;;;;;-1.94;100.00;102282.72;5267353;28;20052;-69
2021/12/22 11:40:11;;;;;;;29.13;18.45;;;;;;;-1.91;100.00;102281.88;5273261;28;20020;-69
2021/12/22 11:42:44;;;;;;;29.87;18.33;;;;;;;-1.85;100.00;102269.63;5270424;28;20036;-69